Cape Girardeau Regional Airport
KCGI : now visible

Airfield :











YOU CAN JOIN US ON...

 
LOGIN :

Register | Disclaimer

   EN    FR    IT 

 









Legend :    VFR   Marginal VFR   IFR   Intensive IFR   Very Intensive IFR
Visi :
Ceiling :
>= 8 km
>= 3000ft
5 to 8 km
1000 to 3000 ft
1500m to 5 km
500 to 1000 ft
800 to 1500m
200 to 500 ft
< 800m
< 200 ft
Symbols :   Thunderstorms  Fog  Heavy snow  Heavy precipitations  Wind > 20 kt






- Airport Elevation : 342 ft
- IATA code : CGI


KCGI - Cape Girardeau Regional

CURRENT METAR :
  • 282353Z AUTO 32004KT 10SM CLR 16/10 A2993 RMK AO2 SLP134 T01560100 10217 20156 53006

EXPIRED METARs :
  • 282253Z AUTO 31007KT 10SM CLR 19/09 A2992 RMK AO2 SLP129 T01940089
  • 282153Z 34009KT 10SM CLR 20/09 A2992 RMK AO2 SLP129 T02000089

TAF KCGI
Valid from the 29 at 00:00 until the 30 at 00:00 UTC


282320Z 2900/2924 32008KT P6SM SCT090
FM290100 29004KT P6SM FEW040 SCT080
TEMPO 2909/2913 00000KT 3SM BR
FM291500 31007KT P6SM BKN060
KZME FIR / North America



MET'MAP, your aeronautical weather chart ! - Copyright ORBIFLY December 2007 - Disclaimer

ORBIFLY MET'MAP TEAM :

Programming & Development : Alexandra Zaïnal
Concept & original design : Baudouin d'Aumeries
Assistance for programming : Marc-Olivier Méhu
Technical & hardware support : Manuel Goepfert

Contact : metmap@orbifly.com




SOURCES & CREDITS :

   NOAA       Earth
Advisory